Terminal Aerodrome Forecast
Issued by NWS

Home | Current Version | Previous Version | Text Only | Print | Product List | Glossary On
Versions: 1 2 3 4 5 6 7 8 9 10 11 12 13
000
FTUS42 KTBW 011742
TAFLAL
TAF
KLAL 011742Z 0118/0218 25004KT P6SM VCTS FEW025CB SCT045 BKN250
     FM012300 19006KT P6SM SCT050 BKN200
     FM020600 00000KT P6SM SCT250
     FM021700 22006KT P6SM SCT030 BKN250=

USA.gov is the U.S. government's official web portal to all federal, state and local government web resources and services.